CNV8 weather

Edenvale Aerodrome
Edenvale, Ontario, Canada

Public forecast

Using degrees Celsius for public forecast. Weather courtesy of forecast.io.

Closest aviation weather report (METAR) to Edenvale Aerodrome

Closest report is CFB Borden, 10.4 nm (19.3 km) SSE. Retrieved 2019/10/16 20:26 UTC (16 minutes ago):

CYBN 162026Z AUTO 23006KT 9SM FEW023 BKN028 OVC059 09/07 A2948

Closest aviation forecast (TAF) to Edenvale Aerodrome

Closest forecast is CFB Borden, 10.4 nm (19.3 km) SSE. Retrieved 2019/10/16 18:33 UTC (2 hours ago):

TAF TAF CYBN 161730Z 1618/1706 19012KT P6SM SCT015 OVC030 TEMPO 1618/1701 5SM -RA -DZ BR BKN015 OVC025 FM170100 VRB03KT 5SM BR FEW010 BKN020 TEMPO 1701/1706 2SM BR BKN010 OVC020 RMK FCST BASED ON AUTO OBS NXT FCST BY 170000Z